Time;durP1;ratioP1;P1;durP2;ratioP2;P2;SDS_P1;SDS_P2;PMS_P1;PMS_P2;Temp;Humidity;BMP_temperature;BMP_pressure;BME280_temperature;BME280_humidity;BME280_pressure;Samples;Min_cycle;Max_cycle;Signal;HPM_P1;HPM_P2
2022/01/21 00:01:27;;;;;;;16.45;2.50;;;-0.60;99.90;;;;;;4990621;28;20401;-88
2022/01/21 00:03:54;;;;;;;19.13;3.72;;;0.10;99.90;;;;;;4989301;28;20042;-88
2022/01/21 00:06:20;;;;;;;12.30;2.78;;;-0.60;99.90;;;;;;4989471;28;20136;-88
2022/01/21 00:08:48;;;;;;;28.60;2.83;;;-0.60;99.90;;;;;;4989565;28;20093;-88
2022/01/21 00:11:15;;;;;;;14.77;2.08;;;-0.40;99.90;;;;;;4989256;28;20100;-88
2022/01/21 00:13:41;;;;;;;35.83;4.95;;;-0.40;99.90;;;;;;4991095;28;20461;-88
2022/01/21 00:16:19;;;;;;;11.88;2.50;;;-0.30;99.90;;;;;;4989729;28;20050;-89
2022/01/21 00:18:58;;;;;;;27.85;2.75;;;-0.20;99.90;;;;;;4988955;28;20319;-88
2022/01/21 00:32:23;;;;;;;15.63;2.55;;;0.70;99.90;;;;;;4992411;28;20085;-89
2022/01/21 00:34:48;;;;;;;15.27;1.77;;;1.40;99.90;;;;;;5010821;28;20112;-89
2022/01/21 00:37:14;;;;;;;13.27;2.95;;;1.60;99.90;;;;;;5010452;28;20077;-89
2022/01/21 00:39:40;;;;;;;14.57;3.03;;;1.50;99.90;;;;;;4983237;28;20062;-89
2022/01/21 00:42:50;;;;;;;13.90;2.33;;;1.40;99.90;;;;;;4992561;28;20080;-89
2022/01/21 00:45:00;;;;;;;10.75;2.28;;;1.30;99.90;;;;;;4987684;28;20054;-89
2022/01/21 00:47:27;;;;;;;16.10;2.10;;;1.70;99.90;;;;;;4993063;28;20394;-89
2022/01/21 00:49:54;;;;;;;20.33;2.95;;;1.30;99.90;;;;;;4990724;28;20046;-89
2022/01/21 00:52:20;;;;;;;18.48;3.38;;;1.40;99.90;;;;;;4991197;28;20053;-89
2022/01/21 00:54:52;;;;;;;15.95;2.55;;;1.50;99.90;;;;;;4991802;28;20054;-89
2022/01/21 00:57:17;;;;;;;24.00;3.13;;;1.70;99.90;;;;;;4990728;28;20073;-89
2022/01/21 00:59:43;;;;;;;9.00;1.75;;;1.60;99.90;;;;;;4990853;28;20050;-89
2022/01/21 01:02:09;;;;;;;15.73;2.67;;;1.50;99.90;;;;;;4996853;28;20058;-89
2022/01/21 01:04:34;;;;;;;11.27;1.83;;;1.30;99.90;;;;;;4994758;28;20076;-88
2022/01/21 01:07:00;;;;;;;22.40;2.60;;;1.40;99.90;;;;;;4992787;28;20051;-89
2022/01/21 01:09:25;;;;;;;11.23;3.00;;;1.20;99.90;;;;;;4990638;28;20049;-89
2022/01/21 01:20:08;;;;;;;15.27;2.33;;;0.90;99.90;;;;;;4955550;28;20111;-89
2022/01/21 01:22:56;;;;;;;17.60;3.72;;;0.90;99.90;;;;;;4990795;28;20058;-89
2022/01/21 01:28:06;;;;;;;13.73;1.67;;;1.00;99.90;;;;;;4993815;28;20054;-89
2022/01/21 01:30:35;;;;;;;30.90;4.97;;;1.00;99.90;;;;;;4993773;28;20130;-89
2022/01/21 01:33:03;;;;;;;19.98;3.00;;;1.10;99.90;;;;;;4995299;28;20141;-89
2022/01/21 01:35:32;;;;;;;18.45;2.47;;;1.20;99.90;;;;;;4977545;28;20477;-89
2022/01/21 01:49:22;;;;;;;15.23;2.30;;;1.20;99.90;;;;;;4993922;28;20047;-89
2022/01/21 01:51:17;;;;;;;22.17;2.90;;;1.50;99.90;;;;;;4993202;28;20050;-90
2022/01/21 01:53:56;;;;;;;12.02;2.65;;;1.60;99.90;;;;;;4993003;28;20112;-89
2022/01/21 01:56:27;;;;;;;17.10;4.03;;;1.60;99.90;;;;;;4992629;28;20810;-90
2022/01/21 01:58:53;;;;;;;21.70;3.20;;;2.10;99.90;;;;;;4993088;28;20073;-90
2022/01/21 02:01:19;;;;;;;17.38;3.50;;;1.30;99.90;;;;;;4992843;28;20608;-90
2022/01/21 02:03:44;;;;;;;11.10;2.45;;;1.10;99.90;;;;;;4976908;28;20513;-87
2022/01/21 02:06:10;;;;;;;19.30;2.35;;;1.10;99.90;;;;;;4993371;28;20069;-88
2022/01/21 02:08:36;;;;;;;22.52;2.72;;;1.00;99.90;;;;;;4995076;28;20086;-88
2022/01/21 02:11:02;;;;;;;12.57;1.98;;;1.00;99.90;;;;;;4994799;28;20070;-89
2022/01/21 02:13:31;;;;;;;16.05;1.63;;;1.00;99.90;;;;;;4993100;28;20046;-89
2022/01/21 02:16:15;;;;;;;16.52;3.22;;;1.10;99.90;;;;;;4977361;28;20050;-89
2022/01/21 02:21:42;;;;;;;11.50;1.63;;;1.30;99.90;;;;;;4993529;28;20054;-89
2022/01/21 02:24:45;;;;;;;15.88;1.83;;;1.60;99.90;;;;;;4997898;28;20285;-90
2022/01/21 02:27:11;;;;;;;8.07;1.70;;;1.70;99.90;;;;;;4995694;28;20042;-91
2022/01/21 02:29:47;;;;;;;5.82;1.10;;;1.70;99.90;;;;;;5002215;28;20209;-90
2022/01/21 02:32:14;;;;;;;8.18;1.63;;;1.90;99.90;;;;;;4989458;28;20057;-90
2022/01/21 02:34:40;;;;;;;12.15;2.00;;;1.50;99.90;;;;;;5004445;28;20054;-90
2022/01/21 02:37:07;;;;;;;16.33;3.10;;;1.40;99.90;;;;;;5005282;28;20104;-91
2022/01/21 02:39:32;;;;;;;8.60;1.20;;;1.20;99.90;;;;;;5002626;28;20571;-91
2022/01/21 02:41:58;;;;;;;20.52;2.70;;;1.30;99.90;;;;;;5003772;28;20046;-91
2022/01/21 02:44:24;;;;;;;12.68;1.25;;;1.90;99.90;;;;;;5005289;28;20118;-90
2022/01/21 02:46:58;;;;;;;11.68;1.50;;;0.90;99.90;;;;;;5006376;28;20057;-91
2022/01/21 02:49:25;;;;;;;8.35;1.27;;;0.90;99.90;;;;;;4990925;28;20050;-91
2022/01/21 02:51:55;;;;;;;10.38;1.98;;;0.70;99.90;;;;;;5006760;28;20047;-91
2022/01/21 02:54:21;;;;;;;13.52;2.22;;;0.70;99.90;;;;;;4989904;28;20050;-92
2022/01/21 02:56:47;;;;;;;9.80;1.90;;;0.80;99.90;;;;;;4988349;28;20034;-91
2022/01/21 02:59:13;;;;;;;17.73;2.70;;;0.90;99.90;;;;;;5001108;28;20129;-92
2022/01/21 03:01:41;;;;;;;10.95;1.50;;;0.90;99.90;;;;;;4983089;28;20152;-91
2022/01/21 03:04:12;;;;;;;12.40;1.50;;;0.90;99.90;;;;;;4999951;28;20093;-92
2022/01/21 03:06:38;;;;;;;12.23;1.58;;;1.00;99.90;;;;;;4986838;28;20047;-91
2022/01/21 03:09:06;;;;;;;12.15;1.63;;;1.00;99.90;;;;;;4984569;28;20077;-92
2022/01/21 03:11:32;;;;;;;7.40;1.30;;;1.00;99.90;;;;;;4984817;28;20054;-91
2022/01/21 03:13:57;;;;;;;8.02;1.27;;;1.10;99.90;;;;;;4998956;28;20591;-91
2022/01/21 03:16:25;;;;;;;11.40;1.83;;;1.20;99.90;;;;;;4981180;28;20046;-91
2022/01/21 03:18:52;;;;;;;13.55;1.80;;;1.30;99.90;;;;;;4981599;28;20358;-91
2022/01/21 03:21:18;;;;;;;16.52;2.10;;;2.10;99.90;;;;;;4980517;28;20086;-91
2022/01/21 03:23:50;;;;;;;6.65;1.33;;;1.40;99.90;;;;;;4979769;28;20081;-91
2022/01/21 03:26:18;;;;;;;10.07;1.77;;;1.40;99.90;;;;;;4980635;28;20097;-91
2022/01/21 03:28:47;;;;;;;9.93;1.88;;;1.50;99.90;;;;;;4996412;28;20054;-91
2022/01/21 03:31:13;;;;;;;18.38;1.92;;;1.70;99.90;;;;;;5001371;28;20060;-92
2022/01/21 03:33:41;;;;;;;11.57;1.23;;;2.00;99.90;;;;;;4997849;28;20057;-91
2022/01/21 03:36:08;;;;;;;10.25;1.73;;;1.60;99.90;;;;;;4980376;28;20042;-91
2022/01/21 03:38:34;;;;;;;8.82;1.92;;;1.50;99.90;;;;;;4979900;28;20106;-91
2022/01/21 03:40:59;;;;;;;12.50;1.98;;;1.50;99.90;;;;;;4996022;28;20086;-92
2022/01/21 03:43:26;;;;;;;9.45;1.58;;;1.50;99.90;;;;;;4996286;28;20050;-90
2022/01/21 03:45:52;;;;;;;14.80;1.25;;;1.50;99.90;;;;;;4996957;28;20109;-90
2022/01/21 03:48:22;;;;;;;7.97;1.05;;;1.60;99.90;;;;;;4979459;28;20062;-91
2022/01/21 03:50:48;;;;;;;6.57;1.10;;;1.50;99.90;;;;;;4995117;28;20112;-91
2022/01/21 03:53:14;;;;;;;8.52;1.50;;;2.20;99.90;;;;;;4995760;28;20433;-91
2022/01/21 03:55:40;;;;;;;4.80;1.05;;;1.30;99.90;;;;;;4980155;28;20057;-90
2022/01/21 03:58:08;;;;;;;11.63;1.13;;;1.10;99.90;;;;;;4996147;28;20086;-91
2022/01/21 04:00:40;;;;;;;3.33;1.02;;;2.30;99.90;;;;;;4996434;28;20070;-90
2022/01/21 04:03:06;;;;;;;7.20;1.30;;;1.10;99.90;;;;;;4979450;28;20046;-90
2022/01/21 04:05:32;;;;;;;6.32;0.85;;;1.00;99.90;;;;;;4994185;28;20038;-91
2022/01/21 04:07:57;;;;;;;16.85;1.95;;;0.80;99.90;;;;;;4978218;28;20143;-91
2022/01/21 04:10:24;;;;;;;8.07;1.05;;;0.70;99.90;;;;;;4992979;28;20576;-90
2022/01/21 04:12:50;;;;;;;4.78;1.20;;;0.60;99.90;;;;;;4994290;28;20077;-90
2022/01/21 04:15:16;;;;;;;7.28;1.08;;;0.50;99.90;;;;;;4979163;28;20050;-90
2022/01/21 04:17:42;;;;;;;15.23;1.58;;;0.50;99.90;;;;;;4976854;28;20552;-91
2022/01/21 04:20:10;;;;;;;12.50;2.15;;;0.40;99.90;;;;;;4992595;28;20066;-91
2022/01/21 04:22:37;;;;;;;15.40;1.30;;;0.40;99.90;;;;;;4977026;28;20050;-90
2022/01/21 04:25:05;;;;;;;9.43;1.58;;;0.40;99.90;;;;;;4977088;28;20022;-91
2022/01/21 04:27:31;;;;;;;6.55;1.77;;;0.40;99.90;;;;;;4995105;28;20171;-91
2022/01/21 04:29:56;;;;;;;10.02;1.17;;;0.70;99.90;;;;;;4993412;28;20591;-90
2022/01/21 04:32:22;;;;;;;8.98;1.33;;;0.70;99.90;;;;;;4977394;28;20255;-91
2022/01/21 04:34:51;;;;;;;10.23;1.58;;;0.90;99.90;;;;;;4994321;28;20086;-91
2022/01/21 04:37:17;;;;;;;7.88;1.23;;;0.80;99.90;;;;;;5010117;28;20065;-90
2022/01/21 04:39:54;;;;;;;5.10;0.90;;;0.90;99.90;;;;;;5000540;28;20058;-91
2022/01/21 04:47:32;;;;;;;10.95;1.70;;;0.60;99.90;;;;;;4993792;28;20112;-91
2022/01/21 04:49:58;;;;;;;9.43;1.35;;;0.40;99.90;;;;;;4993364;28;20050;-91
2022/01/21 04:52:24;;;;;;;8.45;1.08;;;0.30;99.90;;;;;;4993331;28;20045;-90
2022/01/21 04:54:51;;;;;;;7.05;1.58;;;0.30;99.90;;;;;;4993604;28;20294;-90
2022/01/21 04:57:17;;;;;;;11.55;1.63;;;0.10;99.90;;;;;;4995512;28;20058;-90
2022/01/21 04:59:44;;;;;;;14.05;1.35;;;0.00;99.90;;;;;;4993458;28;20046;-91
2022/01/21 05:02:10;;;;;;;8.05;1.48;;;0.00;99.90;;;;;;4996046;28;20047;-91
2022/01/21 05:04:36;;;;;;;10.52;1.88;;;-0.10;99.90;;;;;;4997419;28;20461;-91
2022/01/21 05:07:05;;;;;;;19.75;2.00;;;-0.20;99.90;;;;;;4999055;28;20050;-90
2022/01/21 05:09:33;;;;;;;12.70;1.88;;;-0.10;99.90;;;;;;4980998;28;20110;-90
2022/01/21 05:12:06;;;;;;;12.30;1.60;;;0.00;99.90;;;;;;4981999;28;20425;-91
2022/01/21 05:17:11;;;;;;;12.80;2.92;;;0.10;99.90;;;;;;4998895;28;20129;-91
2022/01/21 05:19:37;;;;;;;10.82;1.75;;;0.30;99.90;;;;;;5001443;28;20061;-91
2022/01/21 05:22:03;;;;;;;24.95;3.22;;;0.40;99.90;;;;;;5006268;28;20046;-91
2022/01/21 05:24:29;;;;;;;13.73;2.47;;;0.60;99.90;;;;;;5001691;28;20057;-91
2022/01/21 05:26:58;;;;;;;19.52;4.60;;;0.50;99.90;;;;;;4989817;28;20054;-91
2022/01/21 05:29:25;;;;;;;12.05;1.60;;;0.50;99.90;;;;;;4997610;28;20050;-91
2022/01/21 05:31:51;;;;;;;12.77;2.10;;;0.50;99.90;;;;;;4998634;28;20055;-90
2022/01/21 05:34:17;;;;;;;10.50;2.05;;;0.30;99.90;;;;;;4981248;28;20126;-90
2022/01/21 05:36:46;;;;;;;17.77;3.47;;;0.70;99.90;;;;;;4996667;28;20049;-90
2022/01/21 05:39:16;;;;;;;19.17;3.67;;;0.30;99.90;;;;;;4996594;28;20054;-91
2022/01/21 05:41:46;;;;;;;12.98;2.25;;;0.30;99.90;;;;;;4980316;28;20054;-90
2022/01/21 05:44:18;;;;;;;29.15;3.55;;;0.40;99.90;;;;;;4981351;28;20105;-91
2022/01/21 05:46:55;;;;;;;15.32;2.75;;;0.50;99.90;;;;;;4996325;28;20053;-91
2022/01/21 05:49:22;;;;;;;14.63;3.13;;;0.40;99.90;;;;;;4995894;28;20052;-92
2022/01/21 05:51:49;;;;;;;15.23;3.03;;;0.40;99.90;;;;;;4986696;28;20054;-91
2022/01/21 05:54:15;;;;;;;19.17;2.05;;;0.50;99.90;;;;;;5003240;28;20046;-91
2022/01/21 05:56:41;;;;;;;11.70;2.35;;;0.40;99.90;;;;;;4994736;28;20106;-91
2022/01/21 05:59:08;;;;;;;28.48;3.70;;;1.10;99.90;;;;;;4995675;28;20359;-90
2022/01/21 06:01:34;;;;;;;18.30;2.38;;;0.70;99.90;;;;;;4995582;28;20122;-91
2022/01/21 06:04:04;;;;;;;14.73;1.90;;;0.40;99.90;;;;;;4979513;28;20086;-91
2022/01/21 06:06:30;;;;;;;11.95;1.95;;;0.40;99.90;;;;;;4998963;28;20031;-90
2022/01/21 06:08:56;;;;;;;13.70;1.55;;;0.40;99.90;;;;;;4995282;28;20089;-90
2022/01/21 06:11:22;;;;;;;16.05;2.15;;;0.30;99.90;;;;;;4994693;28;20057;-91
2022/01/21 06:13:50;;;;;;;14.15;1.88;;;0.30;99.90;;;;;;4996073;28;20038;-91
2022/01/21 06:16:17;;;;;;;15.07;2.13;;;0.50;99.90;;;;;;4997659;28;20050;-90
2022/01/21 06:18:43;;;;;;;13.48;2.88;;;0.60;99.90;;;;;;4995843;28;20097;-91
2022/01/21 06:21:09;;;;;;;16.95;2.42;;;0.80;99.90;;;;;;4993842;28;20046;-91
2022/01/21 06:23:35;;;;;;;21.83;3.78;;;0.90;99.90;;;;;;4994888;28;20056;-90
2022/01/21 06:26:01;;;;;;;13.35;2.95;;;1.20;99.90;;;;;;4978168;28;20274;-91
2022/01/21 06:28:26;;;;;;;15.63;1.80;;;1.70;99.90;;;;;;4997663;28;20112;-91
2022/01/21 06:30:52;;;;;;;19.45;3.25;;;1.20;99.90;;;;;;4981344;28;20535;-90
2022/01/21 06:33:20;;;;;;;22.63;3.65;;;1.40;99.90;;;;;;4982131;28;20056;-90
2022/01/21 06:35:47;;;;;;;14.50;1.42;;;1.40;99.90;;;;;;4998214;28;20069;-90
2022/01/21 06:38:14;;;;;;;11.40;1.63;;;1.70;99.90;;;;;;4999559;28;20057;-90
2022/01/21 06:40:39;;;;;;;11.80;2.17;;;1.40;99.90;;;;;;4998517;28;20596;-90
2022/01/21 06:43:05;;;;;;;17.70;3.72;;;2.10;99.90;;;;;;4995843;28;20050;-90
2022/01/21 06:45:31;;;;;;;18.13;1.90;;;1.20;99.90;;;;;;4996393;28;20034;-90
2022/01/21 06:47:58;;;;;;;15.50;2.67;;;1.80;99.90;;;;;;4997069;28;20524;-89
2022/01/21 06:50:28;;;;;;;19.15;2.33;;;1.20;99.90;;;;;;4993966;28;20062;-89
2022/01/21 06:52:54;;;;;;;18.83;2.17;;;1.00;99.90;;;;;;4997705;28;20053;-89
2022/01/21 06:55:20;;;;;;;11.38;1.95;;;0.90;99.90;;;;;;4999021;28;20045;-90
2022/01/21 06:57:45;;;;;;;22.08;3.55;;;0.80;99.90;;;;;;4996987;28;20054;-88
2022/01/21 07:00:16;;;;;;;16.33;1.95;;;0.70;99.90;;;;;;4995887;28;20069;-90
2022/01/21 07:02:42;;;;;;;14.70;1.85;;;0.60;99.90;;;;;;4978591;28;20050;-90
2022/01/21 07:05:08;;;;;;;25.40;3.90;;;0.50;99.90;;;;;;4977190;28;20063;-90
2022/01/21 07:07:33;;;;;;;20.67;4.18;;;0.40;99.90;;;;;;4989565;28;20125;-88
2022/01/21 07:10:01;;;;;;;16.88;4.05;;;0.30;99.90;;;;;;4988651;28;20042;-88
2022/01/21 07:12:28;;;;;;;17.25;2.45;;;1.00;99.90;;;;;;4989846;28;20123;-88
2022/01/21 07:14:53;;;;;;;12.70;2.95;;;0.10;99.90;;;;;;4984264;28;20486;-88
2022/01/21 07:17:19;;;;;;;15.75;1.77;;;0.00;99.90;;;;;;4990471;28;20054;-87
2022/01/21 07:19:45;;;;;;;28.88;3.53;;;0.10;99.90;;;;;;4995489;28;20049;-88
2022/01/21 07:22:10;;;;;;;19.67;2.58;;;0.00;99.90;;;;;;4992417;28;20484;-89
2022/01/21 07:24:36;;;;;;;12.32;2.25;;;-0.10;99.90;;;;;;4989780;28;20500;-88
2022/01/21 07:27:02;;;;;;;14.25;2.22;;;0.00;99.90;;;;;;4989937;28;20501;-88
2022/01/21 07:29:27;;;;;;;16.25;2.70;;;0.00;99.90;;;;;;4984659;28;20076;-89
2022/01/21 07:31:54;;;;;;;18.80;2.10;;;0.10;99.90;;;;;;4983723;28;20046;-88
2022/01/21 07:34:25;;;;;;;19.33;3.45;;;0.10;99.90;;;;;;4983986;28;20180;-89
2022/01/21 07:36:55;;;;;;;19.17;2.63;;;0.10;99.90;;;;;;4984150;28;20125;-88
2022/01/21 07:39:21;;;;;;;20.30;2.55;;;1.00;99.90;;;;;;4984239;28;20073;-89
2022/01/21 07:41:47;;;;;;;27.85;2.58;;;0.20;99.90;;;;;;4968478;28;20046;-89
2022/01/21 07:44:13;;;;;;;31.42;3.53;;;0.10;99.90;;;;;;4984137;28;20464;-88
2022/01/21 07:46:40;;;;;;;13.55;2.22;;;0.30;99.90;;;;;;4983708;28;20050;-88
2022/01/21 07:49:06;;;;;;;25.70;3.28;;;0.40;99.90;;;;;;4983046;28;20046;-89
2022/01/21 07:51:32;;;;;;;19.75;3.22;;;0.60;99.90;;;;;;4982488;28;20266;-88
2022/01/21 07:53:58;;;;;;;22.73;3.67;;;0.60;99.90;;;;;;4981887;28;20471;-88
2022/01/21 07:56:23;;;;;;;14.55;3.60;;;0.60;99.90;;;;;;4981931;28;20082;-89
2022/01/21 07:58:50;;;;;;;11.65;2.88;;;0.60;99.90;;;;;;4945459;28;1093622;-88
2022/01/21 08:01:16;;;;;;;22.13;3.33;;;0.70;99.90;;;;;;4982784;28;20092;-88
2022/01/21 08:03:42;;;;;;;19.20;3.95;;;0.50;99.90;;;;;;4988507;28;20085;-88
2022/01/21 08:06:07;;;;;;;18.13;3.63;;;0.60;99.90;;;;;;4987941;28;20042;-89
2022/01/21 08:08:33;;;;;;;30.35;5.90;;;0.70;99.90;;;;;;4986521;28;20054;-88
2022/01/21 08:10:59;;;;;;;11.80;2.70;;;0.50;99.90;;;;;;4986602;28;20054;-88
2022/01/21 08:13:27;;;;;;;24.48;3.35;;;0.60;99.90;;;;;;4987677;28;20046;-88
2022/01/21 08:15:53;;;;;;;19.40;3.58;;;1.40;99.90;;;;;;4986243;28;20485;-88
2022/01/21 08:18:18;;;;;;;19.50;3.17;;;0.60;99.90;;;;;;4987021;28;20046;-88
2022/01/21 08:20:44;;;;;;;16.40;3.03;;;1.20;99.90;;;;;;4983643;28;20154;-88
2022/01/21 08:23:11;;;;;;;25.13;4.32;;;1.00;99.90;;;;;;4984458;28;20073;-88
2022/01/21 08:25:37;;;;;;;21.85;4.05;;;1.10;99.90;;;;;;4984356;28;20057;-88
2022/01/21 08:28:06;;;;;;;22.85;3.67;;;1.20;99.90;;;;;;4984299;28;20097;-88
2022/01/21 08:30:35;;;;;;;32.42;5.25;;;1.20;99.90;;;;;;4983627;28;20543;-87
2022/01/21 08:33:01;;;;;;;21.88;4.03;;;1.20;99.90;;;;;;4984497;28;20047;-89
2022/01/21 08:35:28;;;;;;;27.30;4.45;;;1.20;99.90;;;;;;4985216;28;20326;-89
2022/01/21 08:37:54;;;;;;;23.40;3.45;;;1.20;99.90;;;;;;4986882;28;20085;-88
2022/01/21 08:40:21;;;;;;;16.33;2.63;;;1.20;99.90;;;;;;4988644;28;20902;-88
2022/01/21 08:42:50;;;;;;;33.00;4.30;;;1.10;99.90;;;;;;4990204;28;20085;-88
2022/01/21 08:45:15;;;;;;;21.42;2.90;;;1.10;99.90;;;;;;4973786;28;20054;-88
2022/01/21 08:47:42;;;;;;;15.40;3.92;;;1.20;99.90;;;;;;4990452;28;20576;-89
2022/01/21 08:50:11;;;;;;;16.77;2.88;;;1.30;99.90;;;;;;4999546;28;20065;-89
2022/01/21 08:52:38;;;;;;;21.83;3.60;;;1.30;99.90;;;;;;4991844;28;20476;-89
2022/01/21 08:55:05;;;;;;;12.65;2.67;;;1.40;99.90;;;;;;4981271;28;20239;-89
2022/01/21 08:57:34;;;;;;;20.85;4.07;;;1.50;99.90;;;;;;4991232;28;20073;-89
2022/01/21 09:00:01;;;;;;;22.92;3.40;;;1.70;99.90;;;;;;4979390;28;20084;-88
2022/01/21 09:02:26;;;;;;;27.35;3.25;;;1.80;99.90;;;;;;4988945;28;20054;-89
2022/01/21 09:04:52;;;;;;;21.17;3.10;;;2.00;99.90;;;;;;4990007;28;20050;-89
2022/01/21 09:07:17;;;;;;;23.92;3.50;;;2.10;99.90;;;;;;4989285;28;20050;-89
2022/01/21 09:09:46;;;;;;;19.88;3.15;;;2.20;99.90;;;;;;4989742;28;20070;-89
2022/01/21 09:12:11;;;;;;;20.77;3.00;;;2.30;99.90;;;;;;4990210;28;20054;-89
2022/01/21 09:14:37;;;;;;;27.08;3.35;;;2.30;99.90;;;;;;4990000;28;20051;-89
2022/01/21 09:17:05;;;;;;;24.80;3.33;;;2.30;99.90;;;;;;4988980;28;20042;-89
2022/01/21 09:19:32;;;;;;;15.93;2.42;;;2.40;99.90;;;;;;4989253;28;20054;-89
2022/01/21 09:22:02;;;;;;;21.50;2.80;;;2.40;99.90;;;;;;4988921;28;20460;-89
2022/01/21 09:24:33;;;;;;;18.27;3.35;;;2.50;99.90;;;;;;4971352;28;20459;-88
2022/01/21 09:27:08;;;;;;;26.65;2.88;;;2.60;99.90;;;;;;4987207;28;20054;-89
2022/01/21 09:29:37;;;;;;;15.05;2.85;;;2.60;99.90;;;;;;4993685;28;20164;-89
2022/01/21 09:32:04;;;;;;;25.95;3.75;;;2.60;99.90;;;;;;5008300;28;20054;-89
2022/01/21 09:34:30;;;;;;;26.10;5.28;;;2.60;99.90;;;;;;4993015;28;20081;-89
2022/01/21 09:36:59;;;;;;;22.42;4.22;;;2.60;99.90;;;;;;4993479;28;20042;-89
2022/01/21 09:39:29;;;;;;;21.70;3.80;;;2.60;99.90;;;;;;5009271;28;20460;-89
2022/01/21 09:42:00;;;;;;;13.32;2.95;;;2.60;99.90;;;;;;5006738;28;20139;-89
2022/01/21 09:44:28;;;;;;;17.67;3.00;;;2.60;99.90;;;;;;5008897;28;20050;-89
2022/01/21 09:46:59;;;;;;;17.60;2.85;;;3.10;99.90;;;;;;5012673;28;20484;-89
2022/01/21 09:51:55;;;;;;;14.95;3.10;;;2.90;99.90;;;;;;5011773;28;20108;-89
2022/01/21 09:54:31;;;;;;;31.77;4.68;;;2.90;99.90;;;;;;5014446;28;20045;-89
2022/01/21 09:56:58;;;;;;;20.73;4.00;;;3.00;99.90;;;;;;5014128;28;20160;-89
2022/01/21 09:59:28;;;;;;;24.02;3.83;;;3.10;99.90;;;;;;5017687;28;20057;-89
2022/01/21 10:02:00;;;;;;;21.27;3.70;;;3.20;99.90;;;;;;5017231;28;20042;-89
2022/01/21 10:04:38;;;;;;;33.25;4.07;;;3.20;99.90;;;;;;5005278;28;20076;-89
2022/01/21 10:07:05;;;;;;;16.05;3.30;;;3.20;99.90;;;;;;5011445;28;20045;-88
2022/01/21 10:09:32;;;;;;;24.05;3.95;;;3.70;99.90;;;;;;5013582;28;20433;-88
2022/01/21 10:11:59;;;;;;;33.25;4.07;;;3.50;99.90;;;;;;5013635;28;20049;-88
2022/01/21 10:14:28;;;;;;;31.88;4.28;;;3.60;99.90;;;;;;5012254;28;20110;-88
2022/01/21 10:16:56;;;;;;;25.33;3.53;;;3.70;99.90;;;;;;5013412;28;20046;-88
2022/01/21 10:19:24;;;;;;;32.60;3.70;;;3.80;99.90;;;;;;5010258;28;20056;-88
2022/01/21 10:22:01;;;;;;;26.83;4.63;;;3.70;99.90;;;;;;5010013;28;20053;-88
2022/01/21 10:24:28;;;;;;;22.35;3.50;;;3.90;99.90;;;;;;5004467;28;20076;-88
2022/01/21 10:26:59;;;;;;;28.42;4.13;;;4.00;99.90;;;;;;4988528;28;20053;-88
2022/01/21 10:29:43;;;;;;;11.55;2.78;;;4.20;99.90;;;;;;4991523;28;20113;-87
2022/01/21 10:32:17;;;;;;;19.42;2.72;;;4.40;99.90;;;;;;5002877;28;20575;-87
2022/01/21 10:34:45;;;;;;;24.85;3.35;;;4.30;99.90;;;;;;5010718;28;20050;-88
2022/01/21 10:37:34;;;;;;;10.68;2.45;;;4.30;99.90;;;;;;5011710;28;20504;-88
2022/01/21 10:40:07;;;;;;;15.48;3.35;;;4.50;99.90;;;;;;4993702;28;20051;-88
2022/01/21 10:42:33;;;;;;;27.58;2.47;;;4.60;99.90;;;;;;5011482;28;20050;-87
2022/01/21 10:45:00;;;;;;;12.88;2.78;;;4.60;99.90;;;;;;5011056;28;20175;-88
2022/01/21 10:47:31;;;;;;;29.50;3.33;;;4.60;99.90;;;;;;4992881;28;20077;-88
2022/01/21 10:50:06;;;;;;;16.02;2.25;;;4.60;99.90;;;;;;4990494;28;20046;-87
2022/01/21 10:52:37;;;;;;;20.50;2.80;;;4.60;99.90;;;;;;4989307;28;20571;-88
2022/01/21 10:55:24;;;;;;;16.05;2.45;;;4.60;99.90;;;;;;4990627;28;20073;-88
2022/01/21 10:58:24;;;;;;;19.08;4.55;;;4.60;99.90;;;;;;4974204;28;20064;-88
2022/01/21 11:01:03;;;;;;;17.27;3.42;;;4.80;99.90;;;;;;4989675;28;20600;-89
2022/01/21 11:03:30;;;;;;;26.88;4.03;;;4.80;99.90;;;;;;4974170;28;20050;-88
2022/01/21 11:06:18;;;;;;;17.73;5.35;;;4.80;99.90;;;;;;4991069;28;20085;-88
2022/01/21 11:08:43;;;;;;;23.00;4.47;;;4.70;99.90;;;;;;4989618;28;20065;-88
2022/01/21 11:11:09;;;;;;;27.92;5.93;;;4.70;99.90;;;;;;4992484;28;20050;-88
2022/01/21 11:13:37;;;;;;;16.23;4.00;;;5.40;99.90;;;;;;4974761;28;20089;-88
2022/01/21 11:16:23;;;;;;;20.38;3.10;;;4.70;99.90;;;;;;4990099;28;20050;-88
2022/01/21 11:18:50;;;;;;;17.98;4.22;;;4.80;99.90;;;;;;4989350;28;20046;-88
2022/01/21 11:21:16;;;;;;;21.10;2.83;;;4.90;99.90;;;;;;4988520;28;20041;-88
2022/01/21 11:23:42;;;;;;;23.85;3.30;;;5.10;99.90;;;;;;4987934;28;20361;-88
2022/01/21 11:26:12;;;;;;;15.68;3.22;;;5.20;99.90;;;;;;4971500;28;20054;-89
2022/01/21 11:28:50;;;;;;;19.83;3.60;;;5.20;99.90;;;;;;4987485;28;20058;-87
2022/01/21 11:31:19;;;;;;;16.52;2.90;;;5.30;99.90;;;;;;4985990;28;20142;-88
2022/01/21 11:33:45;;;;;;;20.35;3.40;;;5.20;99.90;;;;;;4986261;28;20042;-88
2022/01/21 11:36:11;;;;;;;29.48;4.13;;;5.30;99.90;;;;;;4987445;28;20049;-88
2022/01/21 11:38:39;;;;;;;21.70;3.25;;;5.40;99.90;;;;;;4987711;28;20043;-88
2022/01/21 11:41:06;;;;;;;26.40;4.57;;;5.50;99.90;;;;;;4987362;28;20155;-88
2022/01/21 11:43:35;;;;;;;19.85;3.13;;;5.70;99.90;;;;;;4989177;28;20084;-88
2022/01/21 11:46:19;;;;;;;13.10;3.45;;;6.00;99.90;;;;;;4988685;28;20129;-88
2022/01/21 11:48:56;;;;;;;20.67;3.72;;;6.00;99.90;;;;;;4971138;28;20698;-88
2022/01/21 11:51:33;;;;;;;24.20;3.67;;;6.10;99.90;;;;;;4989005;28;20046;-88
2022/01/21 11:54:03;;;;;;;22.92;3.30;;;6.20;99.90;;;;;;4987687;28;20084;-88
2022/01/21 11:56:46;;;;;;;31.83;4.68;;;6.20;99.90;;;;;;4989729;28;20042;-88
2022/01/21 11:59:23;;;;;;;16.25;3.10;;;6.20;99.90;;;;;;4949695;28;20130;-87
2022/01/21 12:01:49;;;;;;;18.15;2.85;;;6.10;99.90;;;;;;4949767;28;20057;-87
2022/01/21 12:04:30;;;;;;;15.75;2.35;;;6.20;99.90;;;;;;4948184;29;20079;-88
2022/01/21 12:07:00;;;;;;;12.38;2.72;;;6.20;99.90;;;;;;4949303;28;20122;-88
2022/01/21 12:09:59;;;;;;;14.80;3.08;;;6.10;99.90;;;;;;4947054;28;20051;-88
2022/01/21 12:12:45;;;;;;;17.50;2.85;;;6.20;99.90;;;;;;4931469;29;20142;-88
2022/01/21 12:15:54;;;;;;;13.23;2.42;;;7.20;99.90;;;;;;4934176;28;20050;-87
2022/01/21 12:21:22;;;;;;;19.08;2.50;;;6.30;99.90;;;;;;4967786;28;20058;-87
2022/01/21 12:23:48;;;;;;;11.43;2.17;;;6.40;99.90;;;;;;4964820;28;20053;-88
2022/01/21 12:26:27;;;;;;;18.42;2.50;;;6.40;99.90;;;;;;4965570;28;20118;-88
2022/01/21 12:28:57;;;;;;;14.95;2.55;;;6.30;99.90;;;;;;4965828;28;20082;-87
2022/01/21 12:31:46;;;;;;;19.60;2.80;;;6.30;99.90;;;;;;4965096;28;20058;-87
2022/01/21 12:34:15;;;;;;;9.95;1.73;;;6.20;99.90;;;;;;4964600;28;20055;-87
2022/01/21 12:36:49;;;;;;;14.85;2.05;;;6.30;99.90;;;;;;4964708;28;20047;-87
2022/01/21 12:39:43;;;;;;;8.13;1.63;;;6.30;99.90;;;;;;4965424;28;20082;-87
2022/01/21 12:42:21;;;;;;;17.90;2.08;;;6.30;99.90;;;;;;4966346;28;20236;-87
2022/01/21 12:44:52;;;;;;;10.35;3.13;;;6.30;99.90;;;;;;4966577;28;20502;-87
2022/01/21 12:47:39;;;;;;;11.45;2.40;;;6.30;99.90;;;;;;4968458;28;20039;-87
2022/01/21 12:50:14;;;;;;;12.23;1.55;;;6.30;99.90;;;;;;4970450;28;20039;-87
2022/01/21 12:52:49;;;;;;;10.98;2.42;;;6.30;99.90;;;;;;4970209;28;20069;-87
2022/01/21 12:58:21;;;;;;;12.80;2.40;;;6.30;99.90;;;;;;4995167;28;20256;-87
2022/01/21 13:00:48;;;;;;;14.85;2.10;;;6.30;99.90;;;;;;5004563;28;20757;-87
2022/01/21 13:03:17;;;;;;;9.38;2.08;;;6.30;99.90;;;;;;5003664;28;20056;-87
2022/01/21 13:05:46;;;;;;;12.23;1.98;;;6.30;99.90;;;;;;5003716;28;20046;-87
2022/01/21 13:08:59;;;;;;;22.98;5.05;;;6.30;99.90;;;;;;5002896;28;20059;-87
2022/01/21 13:11:25;;;;;;;23.92;3.28;;;6.40;99.90;;;;;;4980757;28;20061;-87
2022/01/21 13:17:18;;;;;;;13.35;2.55;;;6.40;99.90;;;;;;5004202;28;20113;-86
2022/01/21 13:19:43;;;;;;;22.42;2.20;;;6.50;99.90;;;;;;5000195;28;20554;-87
2022/01/21 13:22:24;;;;;;;13.02;2.83;;;6.40;99.90;;;;;;5005921;28;20050;-86
2022/01/21 13:25:20;;;;;;;15.82;2.55;;;6.50;99.90;;;;;;5006806;28;20053;-87
2022/01/21 13:27:51;;;;;;;16.42;2.95;;;6.60;99.90;;;;;;4993794;28;20054;-87
2022/01/21 13:30:20;;;;;;;12.98;2.78;;;6.70;99.90;;;;;;4998260;28;20092;-87
2022/01/21 13:32:46;;;;;;;20.60;3.33;;;6.80;99.90;;;;;;4984504;28;20623;-86
2022/01/21 13:35:14;;;;;;;21.88;3.13;;;6.80;99.90;;;;;;4993939;28;20038;-86
2022/01/21 13:37:42;;;;;;;21.92;3.45;;;6.80;99.90;;;;;;5003360;28;20042;-86
2022/01/21 13:40:09;;;;;;;12.32;2.15;;;6.90;99.90;;;;;;5003744;28;20076;-86
2022/01/21 13:42:36;;;;;;;15.98;2.90;;;6.80;99.90;;;;;;5001451;28;20057;-86
2022/01/21 13:45:08;;;;;;;14.27;2.83;;;6.80;99.90;;;;;;5002883;28;20049;-87
2022/01/21 13:47:40;;;;;;;15.93;3.65;;;6.80;99.90;;;;;;5002444;28;20053;-86
2022/01/21 13:50:17;;;;;;;21.52;3.92;;;6.70;99.90;;;;;;5005247;28;20130;-87
2022/01/21 13:53:15;;;;;;;22.50;3.47;;;6.70;99.90;;;;;;5002792;28;20124;-87
2022/01/21 13:55:49;;;;;;;18.67;2.67;;;6.70;99.90;;;;;;4970106;28;20057;-86